Time;durP1;ratioP1;P1;durP2;ratioP2;P2;SDS_P1;SDS_P2;PMS_P1;PMS_P2;Temp;Humidity;BMP_temperature;BMP_pressure;BME280_temperature;BME280_humidity;BME280_pressure;Samples;Min_cycle;Max_cycle;Signal;HPM_P1;HPM_P2
2023/01/28 00:01:30;;;;;;;5.03;1.80;;;;;;;8.39;nan;101758.09;5042676;28;20953;-88
2023/01/28 00:03:58;;;;;;;6.93;1.60;;;;;;;8.41;nan;101776.00;4965588;28;20440;-89
2023/01/28 00:06:28;;;;;;;3.03;1.33;;;;;;;8.40;nan;101787.03;5000150;28;20953;-88
2023/01/28 00:09:01;;;;;;;2.00;1.17;;;;;;;8.26;nan;101764.75;4999195;28;21018;-88
2023/01/28 00:11:29;;;;;;;3.60;1.40;;;;;;;8.24;nan;101772.22;4983429;28;20486;-89
2023/01/28 00:14:13;;;;;;;2.00;1.30;;;;;;;8.29;nan;101778.03;4980447;28;20456;-90
2023/01/28 00:16:41;;;;;;;4.57;1.77;;;;;;;8.27;nan;101774.59;4999072;28;20486;-88
2023/01/28 00:19:11;;;;;;;2.03;1.30;;;;;;;8.28;nan;101770.88;4982996;28;20439;-89
2023/01/28 00:21:40;;;;;;;2.20;1.40;;;;;;;8.30;nan;101768.84;4999401;28;20469;-89
2023/01/28 00:24:10;;;;;;;2.33;1.47;;;;;;;8.36;nan;101770.13;4998801;28;20456;-90
2023/01/28 00:26:42;;;;;;;3.53;2.10;;;;;;;8.45;nan;101780.13;4982632;28;20435;-89
2023/01/28 00:29:20;;;;;;;5.20;2.40;;;;;;;8.47;nan;101779.94;5040563;28;20450;-88
2023/01/28 00:31:49;;;;;;;8.90;2.50;;;;;;;8.38;nan;101756.38;5056198;28;20863;-89
2023/01/28 00:34:27;;;;;;;4.47;2.13;;;;;;;8.49;nan;101781.50;5039853;28;20457;-88
2023/01/28 00:36:58;;;;;;;6.20;2.80;;;;;;;8.47;nan;101783.53;5071828;28;20484;-89
2023/01/28 00:39:29;;;;;;;8.80;3.50;;;;;;;8.46;nan;101778.25;5054762;28;20514;-88
2023/01/28 00:42:05;;;;;;;3.87;1.87;;;;;;;8.46;nan;101772.81;5072875;28;20457;-89
2023/01/28 00:44:44;;;;;;;3.33;1.77;;;;;;;8.46;nan;101779.13;5058561;28;20454;-90
2023/01/28 00:47:11;;;;;;;2.90;1.37;;;;;;;8.43;nan;101784.00;5038973;28;21022;-89
2023/01/28 00:49:41;;;;;;;3.20;1.70;;;;;;;8.42;nan;101777.69;5055141;28;20456;-88
2023/01/28 00:52:19;;;;;;;2.50;1.50;;;;;;;8.40;nan;101776.13;5055372;28;20453;-89
2023/01/28 00:54:48;;;;;;;3.77;1.97;;;;;;;8.38;nan;101767.25;5071888;28;20510;-89
2023/01/28 00:57:18;;;;;;;4.17;2.10;;;;;;;8.38;nan;101770.00;5039092;28;20479;-88
2023/01/28 00:59:53;;;;;;;3.10;2.10;;;;;;;8.36;nan;101772.00;5056015;28;20437;-88
2023/01/28 01:02:25;;;;;;;5.37;3.00;;;;;;;8.27;nan;101760.97;5040143;28;20448;-90
2023/01/28 01:05:00;;;;;;;3.10;1.60;;;;;;;8.29;nan;101760.81;5059223;28;20484;-88
2023/01/28 01:07:40;;;;;;;3.37;1.60;;;;;;;8.30;nan;101771.56;5043075;28;20429;-88
2023/01/28 01:10:09;;;;;;;2.33;1.30;;;;;;;8.29;nan;101767.13;5060524;28;20456;-89
2023/01/28 01:12:38;;;;;;;2.60;1.40;;;;;;;8.29;nan;101753.50;5075578;28;20447;-89
2023/01/28 01:15:09;;;;;;;3.57;1.70;;;;;;;8.37;nan;101768.28;5049676;28;20445;-89
2023/01/28 01:17:39;;;;;;;3.60;1.40;;;;;;;8.31;nan;101765.13;5048294;28;20500;-89
2023/01/28 01:20:14;;;;;;;1.97;1.00;;;;;;;8.28;nan;101759.09;5058351;28;20460;-89
2023/01/28 01:22:44;;;;;;;2.77;1.43;;;;;;;8.24;nan;101764.03;5076359;28;20818;-89
2023/01/28 01:25:13;;;;;;;2.33;1.47;;;;;;;8.23;nan;101766.91;5054676;28;20515;-88
2023/01/28 01:27:42;;;;;;;3.47;1.97;;;;;;;8.18;nan;101756.47;5038494;28;20453;-89
2023/01/28 01:30:11;;;;;;;5.97;1.43;;;;;;;8.25;nan;101771.19;5025142;28;20458;-88
2023/01/28 01:32:38;;;;;;;2.53;1.30;;;;;;;8.28;nan;101761.84;5038789;28;20431;-88
2023/01/28 01:35:09;;;;;;;2.70;1.30;;;;;;;8.31;nan;101765.13;5051777;28;20461;-88
2023/01/28 01:37:43;;;;;;;3.30;1.53;;;;;;;8.35;nan;101764.84;4982068;28;20492;-88
2023/01/28 01:40:12;;;;;;;2.43;1.57;;;;;;;8.37;nan;101766.41;4981667;28;20474;-89
2023/01/28 01:42:40;;;;;;;2.97;1.90;;;;;;;8.38;nan;101767.25;4965110;28;20453;-88
2023/01/28 01:45:13;;;;;;;5.73;2.63;;;;;;;8.38;nan;101764.53;4981652;28;20456;-88
2023/01/28 01:47:50;;;;;;;3.03;1.73;;;;;;;8.40;nan;101767.97;4961871;28;20503;-88
2023/01/28 01:50:39;;;;;;;5.53;1.80;;;;;;;8.46;nan;101767.34;4979259;28;20961;-88
2023/01/28 01:53:15;;;;;;;2.20;1.20;;;;;;;8.50;nan;101763.28;4965859;28;20983;-89
2023/01/28 01:55:46;;;;;;;2.87;1.30;;;;;;;8.47;nan;101758.16;4957383;28;20453;-90
2023/01/28 01:58:17;;;;;;;3.27;1.30;;;;;;;8.44;nan;101756.63;4978759;28;20489;-88
2023/01/28 02:00:54;;;;;;;2.50;1.10;;;;;;;8.49;nan;101767.03;4965895;28;20452;-89
2023/01/28 02:03:32;;;;;;;2.90;1.13;;;;;;;8.46;nan;101767.34;5051761;28;20511;-88
2023/01/28 02:06:03;;;;;;;2.80;1.13;;;;;;;8.42;nan;101765.94;5058014;28;20444;-89
2023/01/28 02:08:42;;;;;;;3.40;1.30;;;;;;;8.48;nan;101776.19;5074189;28;20478;-88
2023/01/28 02:11:10;;;;;;;2.87;1.10;;;;;;;8.47;nan;101775.34;5074969;28;20519;-88
2023/01/28 02:13:42;;;;;;;2.33;1.27;;;;;;;8.50;nan;101768.72;5037863;28;20459;-89
2023/01/28 02:16:10;;;;;;;2.03;0.90;;;;;;;8.49;nan;101761.56;5047430;28;20458;-88
2023/01/28 02:18:39;;;;;;;2.30;1.20;;;;;;;8.43;nan;101762.22;5040278;28;20489;-88
2023/01/28 02:21:36;;;;;;;3.00;0.97;;;;;;;8.49;nan;101777.91;5057257;28;20442;-88
2023/01/28 02:24:35;;;;;;;1.80;1.03;;;;;;;8.48;nan;101776.19;5074249;28;20454;-89
2023/01/28 02:27:18;;;;;;;1.70;0.90;;;;;;;8.53;nan;101782.06;5075456;28;20934;-89
2023/01/28 02:30:24;;;;;;;2.33;1.00;;;;;;;8.55;nan;101777.31;5069313;28;20518;-91
2023/01/28 02:32:58;;;;;;;3.00;1.07;;;;;;;8.49;nan;101772.47;5069298;28;20445;-90
2023/01/28 02:35:35;;;;;;;2.33;1.10;;;;;;;8.50;nan;101774.19;5070494;28;20468;-89
2023/01/28 02:38:17;;;;;;;2.50;1.20;;;;;;;8.49;nan;101775.19;5090994;28;20529;-89
2023/01/28 02:41:01;;;;;;;1.80;1.00;;;;;;;8.48;nan;101762.59;5094016;28;20496;-88
2023/01/28 02:43:36;;;;;;;2.00;1.07;;;;;;;8.42;nan;101750.47;5094951;28;20527;-89
2023/01/28 02:49:33;;;;;;;2.50;1.00;;;;;;;8.41;nan;101756.91;5013692;28;20452;-89
2023/01/28 02:52:09;;;;;;;4.00;1.70;;;;;;;8.35;nan;101746.63;4980158;28;20452;-89
2023/01/28 02:55:01;;;;;;;2.23;1.33;;;;;;;8.42;nan;101758.63;5012988;28;20897;-89
2023/01/28 02:57:46;;;;;;;2.90;1.30;;;;;;;8.41;nan;101764.22;4996516;28;20484;-88
2023/01/28 03:00:20;;;;;;;2.63;1.27;;;;;;;8.41;nan;101767.81;5004846;28;20458;-88
2023/01/28 03:03:14;;;;;;;3.27;1.23;;;;;;;8.44;nan;101772.09;4995687;28;20452;-88
2023/01/28 03:06:03;;;;;;;2.70;1.00;;;;;;;8.40;nan;101762.53;4996142;28;20456;-88
2023/01/28 03:38:16;;;;;;;2.60;1.33;;;;;;;8.11;nan;101755.34;4965765;28;20488;-89
2023/01/28 03:40:51;;;;;;;2.23;1.17;;;;;;;8.15;nan;101773.09;4967770;28;20461;-88
2023/01/28 03:43:22;;;;;;;4.00;1.10;;;;;;;8.15;nan;101767.66;4960872;28;20881;-88
2023/01/28 03:46:00;;;;;;;1.97;1.20;;;;;;;8.12;nan;101776.13;4976438;28;20983;-88
2023/01/28 03:48:30;;;;;;;2.50;1.10;;;;;;;8.05;nan;101769.59;4963839;28;20441;-89
2023/01/28 03:51:01;;;;;;;2.37;1.00;;;;;;;8.02;nan;101769.91;4990852;28;20444;-88
2023/01/28 03:53:44;;;;;;;3.37;1.00;;;;;;;7.99;nan;101764.75;4971981;28;20586;-89
2023/01/28 03:56:17;;;;;;;2.40;1.00;;;;;;;7.91;nan;101760.06;5064349;28;21012;-89
2023/01/28 03:58:51;;;;;;;1.40;1.00;;;;;;;7.90;nan;101776.53;5079750;28;20473;-88
2023/01/28 04:01:21;;;;;;;1.77;1.13;;;;;;;7.82;nan;101762.84;5041053;28;20502;-88
2023/01/28 04:03:51;;;;;;;2.50;1.10;;;;;;;7.78;nan;101765.00;5039577;28;20441;-88
2023/01/28 04:06:20;;;;;;;2.80;1.20;;;;;;;7.73;nan;101771.91;5056493;28;20452;-89
2023/01/28 04:08:52;;;;;;;3.30;1.30;;;;;;;7.68;nan;101788.69;5040239;28;20450;-88
2023/01/28 04:11:24;;;;;;;1.70;0.80;;;;;;;7.61;nan;101782.97;5065105;28;20449;-88
2023/01/28 04:13:54;;;;;;;3.43;1.60;;;;;;;7.56;nan;101779.00;5073392;28;20483;-89
2023/01/28 04:16:22;;;;;;;2.87;1.37;;;;;;;7.55;nan;101788.16;5055987;28;20507;-89
2023/01/28 04:18:52;;;;;;;1.87;0.80;;;;;;;7.52;nan;101797.47;5019925;28;20481;-89
2023/01/28 04:21:20;;;;;;;1.80;0.90;;;;;;;7.46;nan;101784.47;5035736;28;20856;-88
2023/01/28 04:23:51;;;;;;;2.73;1.20;;;;;;;7.45;nan;101793.63;5019584;28;20446;-89
2023/01/28 04:26:19;;;;;;;1.90;0.90;;;;;;;7.42;nan;101788.50;5019531;28;20469;-89
2023/01/28 04:28:47;;;;;;;1.90;1.00;;;;;;;7.26;nan;101777.38;5035639;28;20448;-88
2023/01/28 04:31:17;;;;;;;1.97;1.20;;;;;;;7.31;nan;101791.41;5019651;28;20458;-89
2023/01/28 04:33:46;;;;;;;2.17;1.10;;;;;;;7.27;nan;101806.28;5019530;28;20450;-89
2023/01/28 04:36:16;;;;;;;1.83;1.10;;;;;;;7.19;nan;101804.28;5019702;28;20507;-88
2023/01/28 04:38:51;;;;;;;1.80;1.07;;;;;;;7.16;nan;101795.56;5046757;28;20481;-88
2023/01/28 04:41:19;;;;;;;2.87;1.10;;;;;;;7.14;nan;101800.28;5074153;28;20461;-88
2023/01/28 04:44:02;;;;;;;2.00;1.00;;;;;;;7.12;nan;101791.44;5044220;28;20811;-88
2023/01/28 04:46:35;;;;;;;2.90;1.17;;;;;;;7.07;nan;101794.59;5059808;28;20498;-88
2023/01/28 04:49:15;;;;;;;2.50;1.13;;;;;;;7.03;nan;101795.88;5059646;28;20449;-88
2023/01/28 04:51:49;;;;;;;2.70;1.20;;;;;;;6.98;nan;101805.44;5043594;28;20440;-89
2023/01/28 04:54:32;;;;;;;7.27;1.30;;;;;;;6.93;nan;101786.84;5059453;28;20463;-88
2023/01/28 04:57:15;;;;;;;2.20;1.20;;;;;;;6.93;nan;101798.59;5062431;28;20450;-88
2023/01/28 04:59:50;;;;;;;2.90;1.17;;;;;;;6.88;nan;101784.59;5040035;28;20511;-89
2023/01/28 05:02:20;;;;;;;3.00;1.63;;;;;;;6.80;nan;101781.72;5039346;28;21012;-88
2023/01/28 05:04:54;;;;;;;2.37;1.07;;;;;;;6.78;nan;101781.00;5023416;28;20453;-88
2023/01/28 05:07:28;;;;;;;3.23;1.10;;;;;;;6.79;nan;101790.88;5023369;28;20821;-89
2023/01/28 05:09:58;;;;;;;5.63;1.30;;;;;;;6.78;nan;101785.59;5055782;28;20445;-88
2023/01/28 05:12:29;;;;;;;2.60;1.20;;;;;;;6.73;nan;101788.75;5039826;28;20881;-89
2023/01/28 05:14:59;;;;;;;2.60;1.27;;;;;;;6.69;nan;101776.47;5075906;28;20974;-88
2023/01/28 05:17:29;;;;;;;1.40;0.93;;;;;;;6.62;nan;101777.16;5052087;28;20836;-88
2023/01/28 05:20:09;;;;;;;2.83;1.10;;;;;;;6.56;nan;101779.44;5079893;28;20945;-89
2023/01/28 05:22:48;;;;;;;1.73;1.10;;;;;;;6.51;nan;101773.59;5092766;28;20983;-89
2023/01/28 05:25:20;;;;;;;1.70;1.00;;;;;;;6.47;nan;101780.31;5093184;28;21115;-88
2023/01/28 05:27:58;;;;;;;3.47;1.27;;;;;;;6.42;nan;101773.56;5062925;28;20790;-88
2023/01/28 05:30:34;;;;;;;3.50;1.20;;;;;;;6.23;nan;101769.84;5075554;28;20544;-88
2023/01/28 05:33:12;;;;;;;2.03;1.17;;;;;;;6.28;nan;101795.72;5068610;28;20947;-89
2023/01/28 05:35:44;;;;;;;2.83;1.20;;;;;;;6.24;nan;101790.56;5058895;28;20946;-88
2023/01/28 05:38:13;;;;;;;2.33;1.20;;;;;;;6.26;nan;101792.28;5086887;28;20488;-88
2023/01/28 05:40:43;;;;;;;3.90;1.13;;;;;;;6.21;nan;101790.84;5095459;28;20463;-88
2023/01/28 05:43:11;;;;;;;2.40;1.17;;;;;;;6.30;nan;101799.16;5078795;28;20452;-88
2023/01/28 05:45:40;;;;;;;1.87;1.10;;;;;;;6.32;nan;101791.72;5062778;28;20441;-89
2023/01/28 05:48:15;;;;;;;2.77;1.40;;;;;;;6.33;nan;101796.16;5056948;28;20951;-89
2023/01/28 05:50:46;;;;;;;1.80;1.20;;;;;;;6.36;nan;101804.84;5054567;28;20453;-89
2023/01/28 05:53:17;;;;;;;6.10;1.50;;;;;;;6.32;nan;101795.31;5067673;28;20506;-90
2023/01/28 05:55:57;;;;;;;2.93;1.20;;;;;;;6.28;nan;101795.72;5076390;28;20507;-89
2023/01/28 05:58:30;;;;;;;5.83;1.20;;;;;;;6.30;nan;101810.88;5074982;28;20477;-89
2023/01/28 06:01:13;;;;;;;3.10;1.70;;;;;;;6.29;nan;101811.00;5058802;28;20503;-90
2023/01/28 06:04:04;;;;;;;2.10;1.00;;;;;;;6.29;nan;101805.56;5057195;28;20452;-89
2023/01/28 06:06:34;;;;;;;2.93;1.10;;;;;;;6.26;nan;101800.41;5078905;28;20814;-89
2023/01/28 06:09:16;;;;;;;2.43;0.90;;;;;;;6.24;nan;101809.56;5095509;28;20490;-89
2023/01/28 06:11:46;;;;;;;2.87;1.57;;;;;;;6.20;nan;101810.84;5062138;28;20527;-90
2023/01/28 06:14:15;;;;;;;5.40;2.60;;;;;;;6.18;nan;101812.81;5077186;28;20950;-88
2023/01/28 06:16:43;;;;;;;2.67;1.30;;;;;;;6.21;nan;101812.56;5096746;28;20483;-91
2023/01/28 06:19:11;;;;;;;5.57;1.30;;;;;;;6.17;nan;101815.66;5062262;28;20509;-89
2023/01/28 06:21:39;;;;;;;2.30;1.20;;;;;;;6.15;nan;101807.69;5062298;28;20440;-89
2023/01/28 06:24:10;;;;;;;2.13;1.10;;;;;;;6.10;nan;101817.25;5078925;28;20453;-90
2023/01/28 06:26:47;;;;;;;2.47;1.20;;;;;;;6.10;nan;101826.25;5072733;28;20459;-89
2023/01/28 06:29:21;;;;;;;1.90;1.00;;;;;;;6.07;nan;101841.94;5079547;28;20444;-89
2023/01/28 06:32:05;;;;;;;2.27;1.00;;;;;;;6.06;nan;101830.22;5045745;28;20441;-89
2023/01/28 06:34:36;;;;;;;3.40;1.20;;;;;;;5.96;nan;101813.06;5061145;28;20821;-89
2023/01/28 06:37:32;;;;;;;2.93;0.90;;;;;;;6.05;nan;101836.66;5044962;28;20461;-89
2023/01/28 06:40:03;;;;;;;3.70;1.03;;;;;;;5.99;nan;101831.75;5077927;28;20476;-88
2023/01/28 06:42:38;;;;;;;2.10;1.10;;;;;;;5.96;nan;101831.22;5059557;28;20448;-89
2023/01/28 06:45:09;;;;;;;3.03;1.30;;;;;;;5.82;nan;101826.94;5060319;28;20451;-91
2023/01/28 06:47:40;;;;;;;1.70;0.90;;;;;;;5.72;nan;101826.06;5073053;28;20453;-88
2023/01/28 06:50:17;;;;;;;1.57;1.00;;;;;;;5.61;nan;101829.72;5037176;28;20453;-89
2023/01/28 06:52:47;;;;;;;1.63;1.00;;;;;;;5.52;nan;101823.25;5020050;28;20522;-88
2023/01/28 06:55:17;;;;;;;2.73;0.83;;;;;;;5.45;nan;101818.50;5003820;28;20481;-88
2023/01/28 06:57:52;;;;;;;2.10;1.10;;;;;;;5.38;nan;101811.91;5016456;28;20447;-88
2023/01/28 07:00:22;;;;;;;1.40;0.90;;;;;;;5.33;nan;101798.75;4999968;28;20455;-88
2023/01/28 07:02:50;;;;;;;4.60;1.17;;;;;;;5.31;nan;101814.28;5005729;28;20513;-88
2023/01/28 07:05:19;;;;;;;5.10;1.10;;;;;;;5.29;nan;101801.88;5025179;28;20455;-89
2023/01/28 07:07:47;;;;;;;2.07;0.87;;;;;;;5.31;nan;101811.59;4999610;28;20444;-89
2023/01/28 07:10:17;;;;;;;1.53;0.70;;;;;;;5.35;nan;101815.75;4983964;28;20505;-89
2023/01/28 07:12:53;;;;;;;1.70;1.00;;;;;;;5.40;nan;101805.34;5021500;28;20867;-89
2023/01/28 07:15:22;;;;;;;1.37;0.70;;;;;;;5.50;nan;101817.13;5029057;28;20448;-89
2023/01/28 07:17:50;;;;;;;1.63;1.00;;;;;;;5.60;nan;101816.28;5040598;28;20999;-89
2023/01/28 07:20:21;;;;;;;2.77;1.10;;;;;;;5.68;nan;101813.78;5056904;28;20474;-88
2023/01/28 07:22:58;;;;;;;2.80;0.80;;;;;;;5.78;nan;101817.38;5075239;28;20861;-88
2023/01/28 07:25:30;;;;;;;2.33;1.13;;;;;;;5.87;nan;101825.56;5074466;28;20456;-89
2023/01/28 07:27:59;;;;;;;5.93;0.90;;;;;;;5.90;nan;101824.47;5077807;28;20490;-90
2023/01/28 07:30:29;;;;;;;1.97;0.80;;;;;;;5.93;nan;101835.03;5074445;28;20926;-90
2023/01/28 07:32:59;;;;;;;4.80;1.60;;;;;;;5.99;nan;101848.03;5041390;28;20446;-89
2023/01/28 07:35:30;;;;;;;103.20;49.50;;;;;;;5.96;nan;101850.19;5057733;28;20985;-89
2023/01/28 07:38:01;;;;;;;133.80;62.17;;;;;;;5.86;nan;101860.97;5042428;28;20499;-90
2023/01/28 07:40:29;;;;;;;40.30;21.10;;;;;;;5.70;nan;101852.47;5058223;28;20461;-90
2023/01/28 07:42:59;;;;;;;38.40;18.30;;;;;;;5.54;nan;101853.81;5061406;28;20528;-90
2023/01/28 07:45:41;;;;;;;25.77;12.80;;;;;;;5.48;nan;101862.47;5061517;28;20455;-89
2023/01/28 07:48:18;;;;;;;11.73;5.77;;;;;;;5.44;nan;101861.00;5076942;28;20462;-90
2023/01/28 07:50:48;;;;;;;7.37;3.67;;;;;;;5.41;nan;101884.81;5072998;28;20956;-88
2023/01/28 07:53:18;;;;;;;5.03;1.87;;;;;;;5.31;nan;101882.06;5056087;28;20454;-89
2023/01/28 07:55:47;;;;;;;5.93;2.80;;;;;;;5.18;nan;101875.97;5085261;28;20456;-89
2023/01/28 07:58:16;;;;;;;7.87;3.53;;;;;;;5.15;nan;101870.81;5059433;28;20452;-90
2023/01/28 08:00:59;;;;;;;3.47;1.80;;;;;;;5.16;nan;101875.25;5056813;28;20479;-95
2023/01/28 08:03:50;;;;;;;3.73;1.47;;;;;;;5.22;nan;101863.84;5072753;28;20442;-93
2023/01/28 08:06:17;;;;;;;3.73;0.97;;;;;;;5.17;nan;101858.84;5063289;28;20810;-93
2023/01/28 08:08:48;;;;;;;2.50;1.30;;;;;;;5.31;nan;101875.78;5057461;28;20456;-93
2023/01/28 08:11:17;;;;;;;1.97;1.00;;;;;;;5.38;nan;101875.13;5056163;28;20452;-93
2023/01/28 08:13:51;;;;;;;1.83;0.90;;;;;;;5.50;nan;101871.34;5056705;28;20445;-91
2023/01/28 08:16:19;;;;;;;3.10;0.80;;;;;;;5.71;nan;101887.59;5040162;28;20503;-91
2023/01/28 08:18:48;;;;;;;1.97;1.17;;;;;;;5.87;nan;101878.97;5052237;28;20478;-92
2023/01/28 08:21:30;;;;;;;1.90;0.80;;;;;;;6.04;nan;101885.63;5035910;28;20824;-93
2023/01/28 08:24:10;;;;;;;2.87;0.90;;;;;;;6.22;nan;101894.84;5021074;28;20446;-92
2023/01/28 08:26:38;;;;;;;2.07;0.87;;;;;;;6.31;nan;101891.31;5052883;28;20442;-90
2023/01/28 08:29:09;;;;;;;1.50;1.07;;;;;;;6.45;nan;101895.50;5039074;28;20504;-92
2023/01/28 08:31:37;;;;;;;3.83;1.00;;;;;;;6.54;nan;101894.66;5035620;28;20825;-92
2023/01/28 08:34:11;;;;;;;1.27;0.83;;;;;;;6.62;nan;101892.09;5020117;28;20454;-92
2023/01/28 08:36:41;;;;;;;2.03;1.10;;;;;;;6.72;nan;101898.41;5036470;28;20462;-92
2023/01/28 08:39:11;;;;;;;1.40;0.70;;;;;;;6.87;nan;101902.44;5019782;28;21003;-93
2023/01/28 08:41:48;;;;;;;1.67;0.90;;;;;;;7.03;nan;101906.44;5020162;28;20802;-93
2023/01/28 08:44:46;;;;;;;2.63;1.60;;;;;;;7.07;nan;101894.31;5020109;28;20434;-94
2023/01/28 08:47:25;;;;;;;3.53;1.73;;;;;;;7.27;nan;101904.16;4996366;28;20444;-93
2023/01/28 08:50:05;;;;;;;5.40;1.50;;;;;;;7.38;nan;101903.16;4995764;28;20464;-93
2023/01/28 08:52:39;;;;;;;2.17;1.30;;;;;;;7.44;nan;101898.00;4977495;28;20503;-93
2023/01/28 08:55:34;;;;;;;4.87;1.40;;;;;;;7.57;nan;101901.25;4968311;28;20444;-94
2023/01/28 08:58:05;;;;;;;2.10;0.83;;;;;;;7.59;nan;101893.81;5045111;28;20854;-94
2023/01/28 09:00:49;;;;;;;1.30;0.80;;;;;;;7.76;nan;101911.25;5021671;28;20482;-93
2023/01/28 09:03:25;;;;;;;1.30;0.87;;;;;;;7.78;nan;101897.50;5036072;28;20575;-94
2023/01/28 09:06:01;;;;;;;4.20;0.90;;;;;;;7.96;nan;101902.00;5020125;28;20500;-93
2023/01/28 09:08:33;;;;;;;3.70;1.03;;;;;;;8.07;nan;101903.72;5036731;28;20452;-93
2023/01/28 09:11:01;;;;;;;2.30;1.20;;;;;;;8.03;nan;101879.66;5019888;28;20522;-93
2023/01/28 09:13:42;;;;;;;4.20;0.93;;;;;;;8.23;nan;101903.94;5036567;28;20439;-92
2023/01/28 09:16:10;;;;;;;3.20;1.30;;;;;;;8.25;nan;101896.47;5074725;28;20458;-93
2023/01/28 09:18:47;;;;;;;3.20;1.10;;;;;;;8.36;nan;101908.19;5056986;28;20970;-92
2023/01/28 09:21:23;;;;;;;5.03;2.80;;;;;;;8.32;nan;101896.72;5073950;28;20447;-94
2023/01/28 09:23:54;;;;;;;2.97;1.50;;;;;;;8.45;nan;101913.59;5076115;28;20478;-94
2023/01/28 09:26:29;;;;;;;3.00;1.30;;;;;;;8.49;nan;101908.69;5062288;28;20946;-94
2023/01/28 09:29:16;;;;;;;2.17;1.40;;;;;;;8.59;nan;101926.72;5041368;28;20434;-95
2023/01/28 09:32:08;;;;;;;1.90;1.30;;;;;;;8.72;nan;101926.34;5053311;28;20434;-94
2023/01/28 09:34:51;;;;;;;2.10;1.30;;;;;;;8.77;nan;101934.94;5075559;28;20449;-94
2023/01/28 09:37:32;;;;;;;2.70;1.50;;;;;;;8.83;nan;101933.47;5042702;28;20855;-93
2023/01/28 09:40:16;;;;;;;2.10;1.10;;;;;;;8.91;nan;101937.13;5058855;28;20472;-93
2023/01/28 09:43:24;;;;;;;4.93;1.10;;;;;;;8.96;nan;101936.66;5059077;28;20816;-93
2023/01/28 09:45:54;;;;;;;1.60;0.93;;;;;;;9.06;nan;101934.72;5071402;28;20467;-92
2023/01/28 09:48:39;;;;;;;3.63;1.00;;;;;;;9.13;nan;101941.28;5032598;28;20497;-91
2023/01/28 09:51:24;;;;;;;4.30;1.60;;;;;;;9.13;nan;101933.09;5054981;28;20932;-92
2023/01/28 09:53:54;;;;;;;3.77;1.67;;;;;;;9.16;nan;101923.75;5039767;28;20454;-92
2023/01/28 09:56:34;;;;;;;1.83;1.10;;;;;;;9.28;nan;101936.13;5037657;28;20469;-93
2023/01/28 09:59:19;;;;;;;5.70;2.13;;;;;;;9.34;nan;101943.69;5077346;28;20465;-90
2023/01/28 10:02:32;;;;;;;7.27;2.70;;;;;;;9.50;nan;101949.28;5078133;28;20436;-94
2023/01/28 10:05:40;;;;;;;3.97;1.73;;;;;;;9.54;nan;101944.38;5070187;28;20437;-94
2023/01/28 10:08:49;;;;;;;2.70;1.20;;;;;;;9.61;nan;101954.53;5085766;28;20456;-93
2023/01/28 10:11:36;;;;;;;2.30;1.00;;;;;;;9.67;nan;101942.94;5083682;28;20453;-91
2023/01/28 10:14:31;;;;;;;4.77;1.00;;;;;;;9.81;nan;101951.59;5060916;28;20503;-92
2023/01/28 10:16:59;;;;;;;2.60;0.90;;;;;;;9.91;nan;101946.88;5062078;28;20473;-92
2023/01/28 10:19:34;;;;;;;4.17;1.47;;;;;;;9.96;nan;101950.84;5064833;28;20476;-94
2023/01/28 10:22:06;;;;;;;3.07;1.60;;;;;;;9.97;nan;101943.53;5053546;28;20421;-88
2023/01/28 10:24:46;;;;;;;2.70;1.10;;;;;;;10.06;nan;101956.19;5041094;28;20530;-91
2023/01/28 10:27:20;;;;;;;5.57;1.47;;;;;;;10.15;nan;101944.31;5046611;28;20449;-91
2023/01/28 10:30:20;;;;;;;2.60;1.57;;;;;;;10.20;nan;101946.63;5066893;28;20964;-91
2023/01/28 10:33:56;;;;;;;12.43;1.20;;;;;;;10.24;nan;101947.97;5042520;28;20511;-94
2023/01/28 10:36:28;;;;;;;3.30;1.20;;;;;;;10.33;nan;101949.75;5013126;28;20494;-92
2023/01/28 10:38:57;;;;;;;2.10;1.20;;;;;;;10.43;nan;101942.28;4981184;28;20449;-91
2023/01/28 10:41:27;;;;;;;2.83;1.03;;;;;;;10.49;nan;101946.22;4980713;28;20433;-90
2023/01/28 10:44:37;;;;;;;1.57;0.87;;;;;;;10.59;nan;101946.94;4998068;28;20451;-92
2023/01/28 10:47:13;;;;;;;3.50;1.43;;;;;;;10.71;nan;101945.66;4995321;28;20451;-92
2023/01/28 10:49:48;;;;;;;1.90;1.00;;;;;;;10.77;nan;101935.94;4982646;28;20436;-91
2023/01/28 10:52:17;;;;;;;1.90;1.00;;;;;;;10.82;nan;101939.88;4956403;28;20453;-91
2023/01/28 10:54:45;;;;;;;3.77;1.03;;;;;;;10.87;nan;101939.38;4997261;28;20506;-92
2023/01/28 10:57:16;;;;;;;2.70;0.90;;;;;;;10.88;nan;101941.94;4980143;28;20445;-92
2023/01/28 10:59:45;;;;;;;2.10;1.20;;;;;;;10.92;nan;101943.31;4996398;28;20534;-92
2023/01/28 11:02:26;;;;;;;1.83;1.00;;;;;;;11.02;nan;101929.50;4980277;28;20476;-92
2023/01/28 11:05:01;;;;;;;1.43;0.90;;;;;;;11.14;nan;101924.56;4980521;28;20436;-91
2023/01/28 11:07:32;;;;;;;2.27;1.00;;;;;;;11.26;nan;101935.00;5045345;28;20846;-92
2023/01/28 11:10:03;;;;;;;1.77;1.00;;;;;;;11.26;nan;101928.69;5076749;28;20452;-92
2023/01/28 11:12:37;;;;;;;2.00;0.90;;;;;;;11.37;nan;101928.34;5066825;28;20448;-92
2023/01/28 11:15:16;;;;;;;3.33;1.10;;;;;;;11.50;nan;101942.41;5053702;28;20435;-92
2023/01/28 11:17:47;;;;;;;2.90;1.57;;;;;;;11.65;nan;101939.81;5054570;28;20514;-91
2023/01/28 11:20:22;;;;;;;2.50;1.30;;;;;;;11.81;nan;101930.75;5061487;28;20473;-92
2023/01/28 11:22:53;;;;;;;2.43;1.27;;;;;;;11.96;nan;101920.81;5058702;28;20949;-92
2023/01/28 11:25:37;;;;;;;3.80;1.73;;;;;;;12.06;nan;101921.50;5079065;28;20437;-93
2023/01/28 11:28:18;;;;;;;2.30;1.37;;;;;;;12.13;nan;101913.41;5072111;28;20943;-93
2023/01/28 11:30:56;;;;;;;2.27;1.23;;;;;;;12.19;nan;101919.03;5050884;28;20464;-92
2023/01/28 11:33:36;;;;;;;3.93;1.23;;;;;;;12.14;nan;101923.34;5044364;28;20453;-92
2023/01/28 11:36:15;;;;;;;3.07;1.33;;;;;;;12.22;nan;101915.97;5056941;28;20457;-92
2023/01/28 11:38:51;;;;;;;2.53;1.47;;;;;;;12.39;nan;101920.34;5057360;28;20452;-92
2023/01/28 11:41:26;;;;;;;3.93;1.10;;;;;;;12.43;nan;101902.53;5074814;28;20484;-91
2023/01/28 11:43:55;;;;;;;2.50;1.10;;;;;;;12.58;nan;101907.25;5073114;28;20475;-91
2023/01/28 11:46:50;;;;;;;3.57;1.60;;;;;;;12.75;nan;101897.91;5072479;28;20438;-91
2023/01/28 11:49:32;;;;;;;2.90;1.30;;;;;;;12.77;nan;101901.31;5076326;28;20534;-91
2023/01/28 11:52:18;;;;;;;1.57;1.10;;;;;;;12.72;nan;101884.53;5074026;28;20444;-92
2023/01/28 14:30:29;;;;;;;1.47;1.00;;;;;;;16.41;nan;101679.69;5904279;23;20378;31
2023/01/28 14:32:56;;;;;;;1.40;1.00;;;;;;;16.38;nan;101671.81;4808379;29;20881;-88
2023/01/28 14:35:30;;;;;;;3.40;0.73;;;;;;;16.41;nan;101681.59;4800407;29;20978;-88
2023/01/28 14:37:58;;;;;;;3.63;1.50;;;;;;;16.38;nan;101677.34;4763891;30;20463;-87
2023/01/28 14:40:27;;;;;;;1.83;0.70;;;;;;;16.35;nan;101671.41;4796731;29;20539;-87
2023/01/28 14:42:55;;;;;;;2.07;0.87;;;;;;;16.36;nan;101670.31;4784999;30;20468;-86
2023/01/28 14:45:50;;;;;;;1.30;0.60;;;;;;;16.46;nan;101677.16;4785029;29;21009;-87
2023/01/28 14:48:35;;;;;;;1.10;0.50;;;;;;;16.50;nan;101670.16;4770600;30;20456;-87
2023/01/28 14:51:25;;;;;;;1.00;0.40;;;;;;;16.57;nan;101673.75;4770533;30;20452;-87
2023/01/28 14:54:14;;;;;;;2.20;0.60;;;;;;;16.54;nan;101676.97;4771478;30;20837;-87
2023/01/28 14:57:09;;;;;;;1.80;0.53;;;;;;;16.49;nan;101679.50;4772542;30;20951;-87
2023/01/28 14:59:47;;;;;;;1.40;0.60;;;;;;;16.33;nan;101679.91;4818058;29;20462;-87
2023/01/28 15:02:19;;;;;;;2.53;0.80;;;;;;;16.34;nan;101673.31;4787623;30;20462;-87
2023/01/28 15:07:34;;;;;;;1.40;0.80;;;;;;;16.40;nan;101677.13;4841351;24;20546;-92
2023/01/28 15:10:42;;;;;;;1.47;0.63;;;;;;;16.32;nan;101669.91;4793961;29;20465;-91
2023/01/28 15:13:28;;;;;;;1.97;0.77;;;;;;;16.05;nan;101670.91;4793361;29;20457;-92
2023/01/28 15:16:08;;;;;;;1.50;0.50;;;;;;;15.77;nan;101668.25;4780481;29;20462;-91
2023/01/28 15:18:45;;;;;;;0.90;0.40;;;;;;;15.59;nan;101645.91;4794935;29;20487;-93
2023/01/28 15:21:20;;;;;;;1.30;0.50;;;;;;;15.82;nan;101672.06;4779628;29;20492;-92
2023/01/28 15:24:09;;;;;;;1.10;0.60;;;;;;;15.92;nan;101668.09;4795425;29;20877;-92
2023/01/28 15:26:44;;;;;;;2.60;0.40;;;;;;;15.75;nan;101673.97;4796516;29;20462;-92
2023/01/28 15:33:03;;;;;;;1.17;0.50;;;;;;;15.61;nan;101682.34;4828795;29;20437;-92
2023/01/28 15:35:34;;;;;;;0.87;0.30;;;;;;;15.62;nan;101671.13;4795774;29;20468;-93
2023/01/28 15:38:02;;;;;;;1.67;0.50;;;;;;;15.65;nan;101667.97;4795503;29;20801;-93
2023/01/28 15:40:48;;;;;;;1.20;0.60;;;;;;;15.66;nan;101664.16;4781898;29;20489;-91
2023/01/28 15:43:30;;;;;;;2.50;0.60;;;;;;;15.85;nan;101668.91;4781653;29;20476;-92
2023/01/28 15:46:00;;;;;;;1.77;0.60;;;;;;;15.95;nan;101667.69;4755129;30;20479;-92